sensor_id;sensor_type;location;lat;lon;timestamp;temperature;humidity
37998;DHT22;24079;51.824;4.682;2023-11-21T00:01:17;9.10;99.90
37998;DHT22;24079;51.824;4.682;2023-11-21T00:03:43;9.00;99.90
37998;DHT22;24079;51.824;4.682;2023-11-21T00:06:09;9.10;99.90
37998;DHT22;24079;51.824;4.682;2023-11-21T00:08:35;9.10;99.90
37998;DHT22;24079;51.824;4.682;2023-11-21T00:11:01;9.10;99.90
37998;DHT22;24079;51.824;4.682;2023-11-21T00:13:27;9.10;99.90
37998;DHT22;24079;51.824;4.682;2023-11-21T00:15:53;9.10;99.90
37998;DHT22;24079;51.824;4.682;2023-11-21T00:18:19;9.10;99.90
37998;DHT22;24079;51.824;4.682;2023-11-21T00:20:44;9.10;99.90
37998;DHT22;24079;51.824;4.682;2023-11-21T00:23:11;9.00;99.90
37998;DHT22;24079;51.824;4.682;2023-11-21T00:25:37;9.10;99.90
37998;DHT22;24079;51.824;4.682;2023-11-21T00:28:03;9.10;99.90
37998;DHT22;24079;51.824;4.682;2023-11-21T00:30:29;9.10;99.90
37998;DHT22;24079;51.824;4.682;2023-11-21T00:32:55;9.00;99.90
37998;DHT22;24079;51.824;4.682;2023-11-21T00:35:21;9.00;99.90
37998;DHT22;24079;51.824;4.682;2023-11-21T00:37:46;9.00;99.90
37998;DHT22;24079;51.824;4.682;2023-11-21T00:40:15;9.00;99.90
37998;DHT22;24079;51.824;4.682;2023-11-21T00:42:41;9.00;99.90
37998;DHT22;24079;51.824;4.682;2023-11-21T00:45:07;9.00;99.90
37998;DHT22;24079;51.824;4.682;2023-11-21T00:47:33;9.00;99.90
37998;DHT22;24079;51.824;4.682;2023-11-21T00:49:59;9.00;99.90
37998;DHT22;24079;51.824;4.682;2023-11-21T00:52:24;9.00;99.90
37998;DHT22;24079;51.824;4.682;2023-11-21T00:54:50;9.00;99.90
37998;DHT22;24079;51.824;4.682;2023-11-21T00:57:16;9.00;99.90
37998;DHT22;24079;51.824;4.682;2023-11-21T00:59:41;9.00;99.90
37998;DHT22;24079;51.824;4.682;2023-11-21T01:02:07;9.00;99.90
37998;DHT22;24079;51.824;4.682;2023-11-21T01:04:35;9.00;99.90
37998;DHT22;24079;51.824;4.682;2023-11-21T01:07:01;9.10;99.90
37998;DHT22;24079;51.824;4.682;2023-11-21T01:09:27;9.10;99.90
37998;DHT22;24079;51.824;4.682;2023-11-21T01:11:53;9.10;99.90
37998;DHT22;24079;51.824;4.682;2023-11-21T01:14:19;9.20;99.90
37998;DHT22;24079;51.824;4.682;2023-11-21T01:16:44;9.20;99.90
37998;DHT22;24079;51.824;4.682;2023-11-21T01:19:10;9.30;99.90
37998;DHT22;24079;51.824;4.682;2023-11-21T01:21:36;9.30;99.90
37998;DHT22;24079;51.824;4.682;2023-11-21T01:24:02;9.40;99.90
37998;DHT22;24079;51.824;4.682;2023-11-21T01:26:28;9.40;99.90
37998;DHT22;24079;51.824;4.682;2023-11-21T01:28:53;9.50;99.90
37998;DHT22;24079;51.824;4.682;2023-11-21T01:31:20;9.50;99.90
37998;DHT22;24079;51.824;4.682;2023-11-21T01:33:46;9.50;99.90
37998;DHT22;24079;51.824;4.682;2023-11-21T01:36:11;9.50;99.90
37998;DHT22;24079;51.824;4.682;2023-11-21T01:38:37;9.60;99.90
37998;DHT22;24079;51.824;4.682;2023-11-21T01:41:03;9.60;99.90
37998;DHT22;24079;51.824;4.682;2023-11-21T01:43:29;9.60;99.90
37998;DHT22;24079;51.824;4.682;2023-11-21T01:45:58;9.70;99.90
37998;DHT22;24079;51.824;4.682;2023-11-21T01:48:24;9.60;99.90
37998;DHT22;24079;51.824;4.682;2023-11-21T01:50:50;9.60;99.90
37998;DHT22;24079;51.824;4.682;2023-11-21T01:53:16;9.60;99.90
37998;DHT22;24079;51.824;4.682;2023-11-21T01:55:42;9.70;99.90
37998;DHT22;24079;51.824;4.682;2023-11-21T01:58:10;9.70;99.90
37998;DHT22;24079;51.824;4.682;2023-11-21T02:00:37;9.70;99.90
37998;DHT22;24079;51.824;4.682;2023-11-21T02:03:03;9.70;99.90
37998;DHT22;24079;51.824;4.682;2023-11-21T02:05:29;9.70;99.90
37998;DHT22;24079;51.824;4.682;2023-11-21T02:07:55;9.80;99.90
37998;DHT22;24079;51.824;4.682;2023-11-21T02:10:22;9.70;99.90
37998;DHT22;24079;51.824;4.682;2023-11-21T02:12:51;9.70;99.90
37998;DHT22;24079;51.824;4.682;2023-11-21T02:15:19;9.80;99.90
37998;DHT22;24079;51.824;4.682;2023-11-21T02:17:52;9.80;99.90
37998;DHT22;24079;51.824;4.682;2023-11-21T02:20:22;9.80;99.90
37998;DHT22;24079;51.824;4.682;2023-11-21T02:22:54;9.80;99.90
37998;DHT22;24079;51.824;4.682;2023-11-21T02:25:31;9.80;99.90
37998;DHT22;24079;51.824;4.682;2023-11-21T02:28:03;9.80;99.90
37998;DHT22;24079;51.824;4.682;2023-11-21T02:30:30;9.80;99.90
37998;DHT22;24079;51.824;4.682;2023-11-21T02:32:57;9.90;99.90
37998;DHT22;24079;51.824;4.682;2023-11-21T02:35:23;9.90;99.90
37998;DHT22;24079;51.824;4.682;2023-11-21T02:37:52;9.90;99.90
37998;DHT22;24079;51.824;4.682;2023-11-21T02:40:18;9.90;99.90
37998;DHT22;24079;51.824;4.682;2023-11-21T02:42:49;9.90;99.90
37998;DHT22;24079;51.824;4.682;2023-11-21T02:45:20;9.90;99.90
37998;DHT22;24079;51.824;4.682;2023-11-21T02:47:46;9.90;99.90
37998;DHT22;24079;51.824;4.682;2023-11-21T02:50:13;10.00;99.90
37998;DHT22;24079;51.824;4.682;2023-11-21T02:52:39;10.00;99.90
37998;DHT22;24079;51.824;4.682;2023-11-21T02:55:05;10.00;99.90
37998;DHT22;24079;51.824;4.682;2023-11-21T02:57:32;10.00;99.90
37998;DHT22;24079;51.824;4.682;2023-11-21T02:59:59;9.90;99.90
37998;DHT22;24079;51.824;4.682;2023-11-21T03:02:25;9.90;99.90
37998;DHT22;24079;51.824;4.682;2023-11-21T03:04:51;9.90;99.90
37998;DHT22;24079;51.824;4.682;2023-11-21T03:07:17;10.00;99.90
37998;DHT22;24079;51.824;4.682;2023-11-21T03:09:47;10.00;99.90
37998;DHT22;24079;51.824;4.682;2023-11-21T03:12:13;9.90;99.90
37998;DHT22;24079;51.824;4.682;2023-11-21T03:14:39;9.90;99.90
37998;DHT22;24079;51.824;4.682;2023-11-21T03:17:05;10.00;99.90
37998;DHT22;24079;51.824;4.682;2023-11-21T03:19:32;9.90;99.90
37998;DHT22;24079;51.824;4.682;2023-11-21T03:21:57;10.00;99.90
37998;DHT22;24079;51.824;4.682;2023-11-21T03:24:23;9.90;99.90
37998;DHT22;24079;51.824;4.682;2023-11-21T03:26:49;10.00;99.90
37998;DHT22;24079;51.824;4.682;2023-11-21T03:29:16;10.00;99.90
37998;DHT22;24079;51.824;4.682;2023-11-21T03:31:41;10.00;99.90
37998;DHT22;24079;51.824;4.682;2023-11-21T03:34:14;9.90;99.90
37998;DHT22;24079;51.824;4.682;2023-11-21T03:36:40;10.00;99.90
37998;DHT22;24079;51.824;4.682;2023-11-21T03:39:06;10.00;99.90
37998;DHT22;24079;51.824;4.682;2023-11-21T03:41:31;10.00;99.90
37998;DHT22;24079;51.824;4.682;2023-11-21T03:43:57;10.10;99.90
37998;DHT22;24079;51.824;4.682;2023-11-21T03:46:23;10.10;99.90
37998;DHT22;24079;51.824;4.682;2023-11-21T03:48:48;10.10;99.90
37998;DHT22;24079;51.824;4.682;2023-11-21T03:51:14;10.10;99.90
37998;DHT22;24079;51.824;4.682;2023-11-21T03:53:39;10.10;99.90
37998;DHT22;24079;51.824;4.682;2023-11-21T03:56:05;10.10;99.90
37998;DHT22;24079;51.824;4.682;2023-11-21T03:58:31;10.10;99.90
37998;DHT22;24079;51.824;4.682;2023-11-21T04:00:57;10.10;99.90
37998;DHT22;24079;51.824;4.682;2023-11-21T04:03:22;10.20;99.90
37998;DHT22;24079;51.824;4.682;2023-11-21T04:05:48;10.20;99.90
37998;DHT22;24079;51.824;4.682;2023-11-21T04:08:13;10.20;99.90
37998;DHT22;24079;51.824;4.682;2023-11-21T04:10:39;10.20;99.90
37998;DHT22;24079;51.824;4.682;2023-11-21T04:13:05;10.20;99.90
37998;DHT22;24079;51.824;4.682;2023-11-21T04:15:32;10.20;99.90
37998;DHT22;24079;51.824;4.682;2023-11-21T04:17:58;10.20;99.90
37998;DHT22;24079;51.824;4.682;2023-11-21T04:20:24;10.30;99.90
37998;DHT22;24079;51.824;4.682;2023-11-21T04:22:49;10.30;99.90
37998;DHT22;24079;51.824;4.682;2023-11-21T04:25:15;10.30;99.90
37998;DHT22;24079;51.824;4.682;2023-11-21T04:27:41;10.30;99.90
37998;DHT22;24079;51.824;4.682;2023-11-21T04:30:10;10.30;99.90
37998;DHT22;24079;51.824;4.682;2023-11-21T04:32:35;10.30;99.90
37998;DHT22;24079;51.824;4.682;2023-11-21T04:35:01;10.30;99.90
37998;DHT22;24079;51.824;4.682;2023-11-21T04:37:27;10.40;99.90
37998;DHT22;24079;51.824;4.682;2023-11-21T04:39:53;10.40;99.90
37998;DHT22;24079;51.824;4.682;2023-11-21T04:42:18;10.40;99.90
37998;DHT22;24079;51.824;4.682;2023-11-21T04:44:44;10.40;99.90
37998;DHT22;24079;51.824;4.682;2023-11-21T04:47:10;10.40;99.90
37998;DHT22;24079;51.824;4.682;2023-11-21T04:49:35;10.30;99.90
37998;DHT22;24079;51.824;4.682;2023-11-21T04:52:01;10.40;99.90
37998;DHT22;24079;51.824;4.682;2023-11-21T04:54:30;10.30;99.90
37998;DHT22;24079;51.824;4.682;2023-11-21T04:56:56;10.40;99.90
37998;DHT22;24079;51.824;4.682;2023-11-21T04:59:22;10.30;99.90
37998;DHT22;24079;51.824;4.682;2023-11-21T05:01:53;10.30;99.90
37998;DHT22;24079;51.824;4.682;2023-11-21T05:04:39;10.30;99.90
37998;DHT22;24079;51.824;4.682;2023-11-21T05:07:05;10.30;99.90
37998;DHT22;24079;51.824;4.682;2023-11-21T05:09:31;10.30;99.90
37998;DHT22;24079;51.824;4.682;2023-11-21T05:11:58;10.30;99.90
37998;DHT22;24079;51.824;4.682;2023-11-21T05:14:24;10.30;99.90
37998;DHT22;24079;51.824;4.682;2023-11-21T05:16:50;10.30;99.90
37998;DHT22;24079;51.824;4.682;2023-11-21T05:19:17;10.30;99.90
37998;DHT22;24079;51.824;4.682;2023-11-21T05:21:43;10.30;99.90
37998;DHT22;24079;51.824;4.682;2023-11-21T05:24:09;10.30;99.90
37998;DHT22;24079;51.824;4.682;2023-11-21T05:26:35;10.40;99.90
37998;DHT22;24079;51.824;4.682;2023-11-21T05:29:01;10.30;99.90
37998;DHT22;24079;51.824;4.682;2023-11-21T05:31:28;10.40;99.90
37998;DHT22;24079;51.824;4.682;2023-11-21T05:33:54;10.40;99.90
37998;DHT22;24079;51.824;4.682;2023-11-21T05:36:20;10.40;99.90
37998;DHT22;24079;51.824;4.682;2023-11-21T05:38:46;10.40;99.90
37998;DHT22;24079;51.824;4.682;2023-11-21T05:41:12;10.40;99.90
37998;DHT22;24079;51.824;4.682;2023-11-21T05:43:39;10.40;99.90
37998;DHT22;24079;51.824;4.682;2023-11-21T05:46:05;10.40;99.90
37998;DHT22;24079;51.824;4.682;2023-11-21T05:48:33;10.40;99.90
37998;DHT22;24079;51.824;4.682;2023-11-21T05:50:59;10.40;99.90
37998;DHT22;24079;51.824;4.682;2023-11-21T05:53:25;10.40;99.90
37998;DHT22;24079;51.824;4.682;2023-11-21T05:55:51;10.40;99.90
37998;DHT22;24079;51.824;4.682;2023-11-21T05:58:17;10.40;99.90
37998;DHT22;24079;51.824;4.682;2023-11-21T06:00:43;10.50;99.90
37998;DHT22;24079;51.824;4.682;2023-11-21T06:03:10;10.50;99.90
37998;DHT22;24079;51.824;4.682;2023-11-21T06:05:36;10.60;99.90
37998;DHT22;24079;51.824;4.682;2023-11-21T06:08:02;10.50;99.90
37998;DHT22;24079;51.824;4.682;2023-11-21T06:10:28;10.50;99.90
37998;DHT22;24079;51.824;4.682;2023-11-21T06:12:54;10.50;99.90
37998;DHT22;24079;51.824;4.682;2023-11-21T06:15:20;10.50;99.90
37998;DHT22;24079;51.824;4.682;2023-11-21T06:17:48;10.50;99.90
37998;DHT22;24079;51.824;4.682;2023-11-21T06:20:21;10.50;99.90
37998;DHT22;24079;51.824;4.682;2023-11-21T06:22:50;10.50;99.90
37998;DHT22;24079;51.824;4.682;2023-11-21T06:25:17;10.50;99.90
37998;DHT22;24079;51.824;4.682;2023-11-21T06:27:44;10.40;99.90
37998;DHT22;24079;51.824;4.682;2023-11-21T06:30:10;10.40;99.90
37998;DHT22;24079;51.824;4.682;2023-11-21T06:32:37;10.30;99.90
37998;DHT22;24079;51.824;4.682;2023-11-21T06:35:04;10.30;99.90
37998;DHT22;24079;51.824;4.682;2023-11-21T06:37:30;10.30;99.90
37998;DHT22;24079;51.824;4.682;2023-11-21T06:39:57;10.30;99.90
37998;DHT22;24079;51.824;4.682;2023-11-21T06:42:24;10.30;99.90
37998;DHT22;24079;51.824;4.682;2023-11-21T06:44:50;10.30;99.90
37998;DHT22;24079;51.824;4.682;2023-11-21T06:47:36;10.30;99.90
37998;DHT22;24079;51.824;4.682;2023-11-21T06:50:03;10.30;99.90
37998;DHT22;24079;51.824;4.682;2023-11-21T06:52:29;10.40;99.90
37998;DHT22;24079;51.824;4.682;2023-11-21T06:55:15;10.40;99.90
37998;DHT22;24079;51.824;4.682;2023-11-21T06:58:00;10.30;99.90
37998;DHT22;24079;51.824;4.682;2023-11-21T07:00:46;10.40;99.90
37998;DHT22;24079;51.824;4.682;2023-11-21T07:03:31;10.40;99.90
37998;DHT22;24079;51.824;4.682;2023-11-21T07:06:17;10.40;99.90
37998;DHT22;24079;51.824;4.682;2023-11-21T07:08:43;10.40;99.90
37998;DHT22;24079;51.824;4.682;2023-11-21T07:11:08;10.40;99.90
37998;DHT22;24079;51.824;4.682;2023-11-21T07:13:34;10.30;99.90
37998;DHT22;24079;51.824;4.682;2023-11-21T07:15:59;10.30;99.90
37998;DHT22;24079;51.824;4.682;2023-11-21T07:18:25;10.20;99.90
37998;DHT22;24079;51.824;4.682;2023-11-21T07:20:51;10.20;99.90
37998;DHT22;24079;51.824;4.682;2023-11-21T07:23:17;10.20;99.90
37998;DHT22;24079;51.824;4.682;2023-11-21T07:25:42;10.20;99.90
37998;DHT22;24079;51.824;4.682;2023-11-21T07:28:08;10.20;99.90
37998;DHT22;24079;51.824;4.682;2023-11-21T07:30:34;10.20;99.90
37998;DHT22;24079;51.824;4.682;2023-11-21T07:33:11;10.30;99.90
37998;DHT22;24079;51.824;4.682;2023-11-21T07:35:37;10.30;99.90
37998;DHT22;24079;51.824;4.682;2023-11-21T07:38:03;10.30;99.90
37998;DHT22;24079;51.824;4.682;2023-11-21T07:40:29;10.40;99.90
37998;DHT22;24079;51.824;4.682;2023-11-21T07:42:55;10.40;99.90
37998;DHT22;24079;51.824;4.682;2023-11-21T07:45:23;10.40;99.90
37998;DHT22;24079;51.824;4.682;2023-11-21T07:47:49;10.50;99.90
37998;DHT22;24079;51.824;4.682;2023-11-21T07:50:15;10.40;99.90
37998;DHT22;24079;51.824;4.682;2023-11-21T07:52:41;10.50;99.90
37998;DHT22;24079;51.824;4.682;2023-11-21T07:55:08;10.50;99.90
37998;DHT22;24079;51.824;4.682;2023-11-21T07:57:34;10.50;99.90
37998;DHT22;24079;51.824;4.682;2023-11-21T08:00:00;10.60;99.90
37998;DHT22;24079;51.824;4.682;2023-11-21T08:02:26;10.60;99.90
37998;DHT22;24079;51.824;4.682;2023-11-21T08:04:53;10.70;99.90
37998;DHT22;24079;51.824;4.682;2023-11-21T08:07:19;10.70;99.90
37998;DHT22;24079;51.824;4.682;2023-11-21T08:09:44;10.80;99.90
37998;DHT22;24079;51.824;4.682;2023-11-21T08:12:11;10.70;99.90
37998;DHT22;24079;51.824;4.682;2023-11-21T08:14:37;10.80;99.90
37998;DHT22;24079;51.824;4.682;2023-11-21T08:17:04;10.80;99.90
37998;DHT22;24079;51.824;4.682;2023-11-21T08:19:30;10.80;99.90
37998;DHT22;24079;51.824;4.682;2023-11-21T08:21:55;10.80;99.90
37998;DHT22;24079;51.824;4.682;2023-11-21T08:24:22;10.80;99.90
37998;DHT22;24079;51.824;4.682;2023-11-21T08:26:48;10.80;99.90
37998;DHT22;24079;51.824;4.682;2023-11-21T08:29:14;10.80;99.90
37998;DHT22;24079;51.824;4.682;2023-11-21T08:31:40;10.80;99.90
37998;DHT22;24079;51.824;4.682;2023-11-21T08:34:07;10.80;99.90
37998;DHT22;24079;51.824;4.682;2023-11-21T08:36:33;10.80;99.90
37998;DHT22;24079;51.824;4.682;2023-11-21T08:38:58;10.90;99.90
37998;DHT22;24079;51.824;4.682;2023-11-21T08:41:24;10.90;99.90
37998;DHT22;24079;51.824;4.682;2023-11-21T08:43:50;10.90;99.90
37998;DHT22;24079;51.824;4.682;2023-11-21T08:46:16;11.00;99.90
37998;DHT22;24079;51.824;4.682;2023-11-21T08:48:45;10.90;99.90
37998;DHT22;24079;51.824;4.682;2023-11-21T08:51:11;10.90;99.90
37998;DHT22;24079;51.824;4.682;2023-11-21T08:53:37;10.90;99.90
37998;DHT22;24079;51.824;4.682;2023-11-21T08:56:03;11.00;99.90
37998;DHT22;24079;51.824;4.682;2023-11-21T08:58:30;11.00;99.90
37998;DHT22;24079;51.824;4.682;2023-11-21T09:00:57;11.00;99.90
37998;DHT22;24079;51.824;4.682;2023-11-21T09:03:23;11.10;99.90
37998;DHT22;24079;51.824;4.682;2023-11-21T09:05:48;11.20;99.90
37998;DHT22;24079;51.824;4.682;2023-11-21T09:08:14;11.20;99.90
37998;DHT22;24079;51.824;4.682;2023-11-21T09:10:40;11.30;99.90
37998;DHT22;24079;51.824;4.682;2023-11-21T09:13:07;11.30;99.90
37998;DHT22;24079;51.824;4.682;2023-11-21T09:15:34;11.30;99.90
37998;DHT22;24079;51.824;4.682;2023-11-21T09:18:00;11.30;99.90
37998;DHT22;24079;51.824;4.682;2023-11-21T09:20:27;11.40;99.90
37998;DHT22;24079;51.824;4.682;2023-11-21T09:22:52;11.40;99.90
37998;DHT22;24079;51.824;4.682;2023-11-21T09:25:19;11.50;99.90
37998;DHT22;24079;51.824;4.682;2023-11-21T09:27:47;11.60;99.90
37998;DHT22;24079;51.824;4.682;2023-11-21T09:30:13;11.60;99.90
37998;DHT22;24079;51.824;4.682;2023-11-21T09:32:40;11.60;99.90
37998;DHT22;24079;51.824;4.682;2023-11-21T09:35:06;11.60;99.90
37998;DHT22;24079;51.824;4.682;2023-11-21T09:37:34;11.60;99.90
37998;DHT22;24079;51.824;4.682;2023-11-21T09:40:04;11.60;99.90
37998;DHT22;24079;51.824;4.682;2023-11-21T09:42:40;11.60;99.90
37998;DHT22;24079;51.824;4.682;2023-11-21T09:47:47;11.60;99.90
37998;DHT22;24079;51.824;4.682;2023-11-21T09:50:17;11.60;99.90
37998;DHT22;24079;51.824;4.682;2023-11-21T09:55:37;11.60;99.90
37998;DHT22;24079;51.824;4.682;2023-11-21T09:58:04;11.60;99.90
37998;DHT22;24079;51.824;4.682;2023-11-21T10:00:33;11.50;99.90
37998;DHT22;24079;51.824;4.682;2023-11-21T10:03:00;11.60;99.90
37998;DHT22;24079;51.824;4.682;2023-11-21T10:05:28;11.60;99.90
37998;DHT22;24079;51.824;4.682;2023-11-21T10:07:56;11.70;99.90
37998;DHT22;24079;51.824;4.682;2023-11-21T10:10:23;11.80;99.90
37998;DHT22;24079;51.824;4.682;2023-11-21T10:12:55;11.90;99.90
37998;DHT22;24079;51.824;4.682;2023-11-21T10:15:23;12.00;99.90
37998;DHT22;24079;51.824;4.682;2023-11-21T10:17:52;12.10;99.90
37998;DHT22;24079;51.824;4.682;2023-11-21T10:20:28;12.10;99.90
37998;DHT22;24079;51.824;4.682;2023-11-21T10:22:55;12.10;99.90
37998;DHT22;24079;51.824;4.682;2023-11-21T10:25:22;12.00;99.90
37998;DHT22;24079;51.824;4.682;2023-11-21T10:27:49;12.10;99.90
37998;DHT22;24079;51.824;4.682;2023-11-21T10:30:18;12.10;99.90
37998;DHT22;24079;51.824;4.682;2023-11-21T10:32:44;12.10;99.90
37998;DHT22;24079;51.824;4.682;2023-11-21T10:35:10;12.10;99.90
37998;DHT22;24079;51.824;4.682;2023-11-21T10:37:40;12.00;99.90
37998;DHT22;24079;51.824;4.682;2023-11-21T10:40:10;12.10;99.90
37998;DHT22;24079;51.824;4.682;2023-11-21T10:42:39;12.00;99.90
37998;DHT22;24079;51.824;4.682;2023-11-21T10:45:07;11.90;99.90
37998;DHT22;24079;51.824;4.682;2023-11-21T10:47:41;12.00;99.90
37998;DHT22;24079;51.824;4.682;2023-11-21T10:50:08;11.90;99.90
37998;DHT22;24079;51.824;4.682;2023-11-21T10:52:37;11.90;99.90
37998;DHT22;24079;51.824;4.682;2023-11-21T10:55:20;11.90;99.90
37998;DHT22;24079;51.824;4.682;2023-11-21T10:57:53;11.90;99.90
37998;DHT22;24079;51.824;4.682;2023-11-21T11:00:20;11.80;99.90
37998;DHT22;24079;51.824;4.682;2023-11-21T11:02:51;11.70;99.90
37998;DHT22;24079;51.824;4.682;2023-11-21T11:05:20;11.70;99.90
37998;DHT22;24079;51.824;4.682;2023-11-21T11:07:59;11.70;99.90
37998;DHT22;24079;51.824;4.682;2023-11-21T11:10:28;11.70;99.90
37998;DHT22;24079;51.824;4.682;2023-11-21T11:12:58;11.80;99.90
37998;DHT22;24079;51.824;4.682;2023-11-21T11:15:25;11.70;99.90
37998;DHT22;24079;51.824;4.682;2023-11-21T11:17:53;11.80;99.90
37998;DHT22;24079;51.824;4.682;2023-11-21T11:20:34;11.80;99.90
37998;DHT22;24079;51.824;4.682;2023-11-21T11:28:38;11.60;99.90
37998;DHT22;24079;51.824;4.682;2023-11-21T11:31:37;11.60;99.90
37998;DHT22;24079;51.824;4.682;2023-11-21T11:34:31;11.50;99.90
37998;DHT22;24079;51.824;4.682;2023-11-21T11:37:06;11.50;99.90
37998;DHT22;24079;51.824;4.682;2023-11-21T11:39:43;11.50;99.90
37998;DHT22;24079;51.824;4.682;2023-11-21T11:42:14;11.50;99.90
37998;DHT22;24079;51.824;4.682;2023-11-21T11:47:13;11.50;99.90
37998;DHT22;24079;51.824;4.682;2023-11-21T11:50:07;11.50;99.90
37998;DHT22;24079;51.824;4.682;2023-11-21T11:52:42;11.50;99.90
37998;DHT22;24079;51.824;4.682;2023-11-21T11:55:19;11.50;99.90
37998;DHT22;24079;51.824;4.682;2023-11-21T11:57:48;11.50;99.90
37998;DHT22;24079;51.824;4.682;2023-11-21T12:00:35;11.50;99.90
37998;DHT22;24079;51.824;4.682;2023-11-21T12:03:07;11.50;99.90
37998;DHT22;24079;51.824;4.682;2023-11-21T12:05:35;11.40;99.90
37998;DHT22;24079;51.824;4.682;2023-11-21T12:08:06;11.40;99.90
37998;DHT22;24079;51.824;4.682;2023-11-21T12:10:36;11.40;99.90
37998;DHT22;24079;51.824;4.682;2023-11-21T12:13:07;11.40;99.90
37998;DHT22;24079;51.824;4.682;2023-11-21T12:15:34;11.30;99.90
37998;DHT22;24079;51.824;4.682;2023-11-21T12:18:01;11.40;99.90
37998;DHT22;24079;51.824;4.682;2023-11-21T12:20:27;11.30;99.90
37998;DHT22;24079;51.824;4.682;2023-11-21T12:22:56;11.40;99.90
37998;DHT22;24079;51.824;4.682;2023-11-21T12:25:26;11.30;99.90
37998;DHT22;24079;51.824;4.682;2023-11-21T12:27:58;11.30;99.90
37998;DHT22;24079;51.824;4.682;2023-11-21T12:30:34;11.30;99.90
37998;DHT22;24079;51.824;4.682;2023-11-21T12:33:04;11.30;99.90
37998;DHT22;24079;51.824;4.682;2023-11-21T12:35:33;11.30;99.90
37998;DHT22;24079;51.824;4.682;2023-11-21T12:38:01;11.30;99.90
37998;DHT22;24079;51.824;4.682;2023-11-21T12:40:29;11.30;99.90
37998;DHT22;24079;51.824;4.682;2023-11-21T12:42:59;11.30;99.90
37998;DHT22;24079;51.824;4.682;2023-11-21T12:45:28;11.30;99.90
37998;DHT22;24079;51.824;4.682;2023-11-21T12:48:04;11.40;99.90
37998;DHT22;24079;51.824;4.682;2023-11-21T12:50:34;11.40;99.90
37998;DHT22;24079;51.824;4.682;2023-11-21T12:53:08;11.40;99.90
37998;DHT22;24079;51.824;4.682;2023-11-21T12:55:36;11.40;99.90
37998;DHT22;24079;51.824;4.682;2023-11-21T12:58:09;11.30;99.90
37998;DHT22;24079;51.824;4.682;2023-11-21T13:00:40;11.30;99.90
37998;DHT22;24079;51.824;4.682;2023-11-21T13:03:08;11.40;99.90
37998;DHT22;24079;51.824;4.682;2023-11-21T13:05:38;11.40;99.90
37998;DHT22;24079;51.824;4.682;2023-11-21T13:08:06;11.30;99.90
37998;DHT22;24079;51.824;4.682;2023-11-21T13:10:39;11.40;99.90
37998;DHT22;24079;51.824;4.682;2023-11-21T13:13:06;11.40;99.90
37998;DHT22;24079;51.824;4.682;2023-11-21T13:15:39;11.40;99.90
37998;DHT22;24079;51.824;4.682;2023-11-21T13:18:06;11.40;99.90
37998;DHT22;24079;51.824;4.682;2023-11-21T13:20:33;11.30;99.90
37998;DHT22;24079;51.824;4.682;2023-11-21T13:23:00;11.30;99.90
37998;DHT22;24079;51.824;4.682;2023-11-21T13:25:28;11.30;99.90
37998;DHT22;24079;51.824;4.682;2023-11-21T13:27:54;11.30;99.90
37998;DHT22;24079;51.824;4.682;2023-11-21T13:30:21;11.30;99.90
37998;DHT22;24079;51.824;4.682;2023-11-21T13:33:00;11.20;99.90
37998;DHT22;24079;51.824;4.682;2023-11-21T13:35:37;11.20;99.90
37998;DHT22;24079;51.824;4.682;2023-11-21T13:38:17;11.10;99.90
37998;DHT22;24079;51.824;4.682;2023-11-21T13:41:01;11.10;99.90
37998;DHT22;24079;51.824;4.682;2023-11-21T13:43:28;11.20;99.90
37998;DHT22;24079;51.824;4.682;2023-11-21T13:45:55;11.10;99.90
37998;DHT22;24079;51.824;4.682;2023-11-21T13:48:26;11.10;99.90
37998;DHT22;24079;51.824;4.682;2023-11-21T13:50:58;11.20;99.90
37998;DHT22;24079;51.824;4.682;2023-11-21T13:53:26;11.20;99.90
37998;DHT22;24079;51.824;4.682;2023-11-21T13:55:54;11.20;99.90
37998;DHT22;24079;51.824;4.682;2023-11-21T13:58:20;11.30;99.90
37998;DHT22;24079;51.824;4.682;2023-11-21T14:00:58;11.30;99.90
37998;DHT22;24079;51.824;4.682;2023-11-21T14:03:24;11.30;99.90
37998;DHT22;24079;51.824;4.682;2023-11-21T14:06:03;11.40;99.90
37998;DHT22;24079;51.824;4.682;2023-11-21T14:08:40;11.30;99.90
37998;DHT22;24079;51.824;4.682;2023-11-21T14:11:06;11.30;99.90
37998;DHT22;24079;51.824;4.682;2023-11-21T14:13:32;11.30;99.90
37998;DHT22;24079;51.824;4.682;2023-11-21T14:15:59;11.30;99.90
37998;DHT22;24079;51.824;4.682;2023-11-21T14:18:28;11.30;99.90
37998;DHT22;24079;51.824;4.682;2023-11-21T14:21:04;11.30;99.90
37998;DHT22;24079;51.824;4.682;2023-11-21T14:23:31;11.20;99.90
37998;DHT22;24079;51.824;4.682;2023-11-21T14:25:59;11.20;99.90
37998;DHT22;24079;51.824;4.682;2023-11-21T14:28:27;11.20;99.90
37998;DHT22;24079;51.824;4.682;2023-11-21T14:30:53;11.10;99.90
37998;DHT22;24079;51.824;4.682;2023-11-21T14:33:19;11.10;99.90
37998;DHT22;24079;51.824;4.682;2023-11-21T14:35:45;11.10;99.90
37998;DHT22;24079;51.824;4.682;2023-11-21T14:38:12;11.10;99.90
37998;DHT22;24079;51.824;4.682;2023-11-21T14:40:39;11.10;99.90
37998;DHT22;24079;51.824;4.682;2023-11-21T14:43:06;11.00;99.90
37998;DHT22;24079;51.824;4.682;2023-11-21T14:45:32;11.00;99.90
37998;DHT22;24079;51.824;4.682;2023-11-21T14:47:58;10.90;99.90
37998;DHT22;24079;51.824;4.682;2023-11-21T14:50:30;10.90;99.90
37998;DHT22;24079;51.824;4.682;2023-11-21T14:53:11;10.90;99.90
37998;DHT22;24079;51.824;4.682;2023-11-21T14:55:41;10.90;99.90
37998;DHT22;24079;51.824;4.682;2023-11-21T14:58:16;10.90;99.90
37998;DHT22;24079;51.824;4.682;2023-11-21T15:00:49;10.90;99.90
37998;DHT22;24079;51.824;4.682;2023-11-21T15:03:17;10.80;99.90
37998;DHT22;24079;51.824;4.682;2023-11-21T15:05:59;10.80;99.90
37998;DHT22;24079;51.824;4.682;2023-11-21T15:08:53;10.80;99.90
37998;DHT22;24079;51.824;4.682;2023-11-21T15:11:25;10.70;99.90
37998;DHT22;24079;51.824;4.682;2023-11-21T15:13:56;10.70;99.90
37998;DHT22;24079;51.824;4.682;2023-11-21T15:16:22;10.70;99.90
37998;DHT22;24079;51.824;4.682;2023-11-21T15:18:47;10.70;99.90
37998;DHT22;24079;51.824;4.682;2023-11-21T15:21:13;10.70;99.90
37998;DHT22;24079;51.824;4.682;2023-11-21T15:23:39;10.70;99.90
37998;DHT22;24079;51.824;4.682;2023-11-21T15:26:07;10.60;99.90
37998;DHT22;24079;51.824;4.682;2023-11-21T15:28:34;10.60;99.90
37998;DHT22;24079;51.824;4.682;2023-11-21T15:31:00;10.60;99.90
37998;DHT22;24079;51.824;4.682;2023-11-21T15:33:28;10.70;99.90
37998;DHT22;24079;51.824;4.682;2023-11-21T15:35:53;10.60;99.90
37998;DHT22;24079;51.824;4.682;2023-11-21T15:38:20;10.60;99.90
37998;DHT22;24079;51.824;4.682;2023-11-21T15:40:47;10.60;99.90
37998;DHT22;24079;51.824;4.682;2023-11-21T15:43:13;10.50;99.90
37998;DHT22;24079;51.824;4.682;2023-11-21T15:45:39;10.60;99.90
37998;DHT22;24079;51.824;4.682;2023-11-21T15:48:05;10.50;99.90
37998;DHT22;24079;51.824;4.682;2023-11-21T15:50:31;10.50;99.90
37998;DHT22;24079;51.824;4.682;2023-11-21T15:52:57;10.50;99.90
37998;DHT22;24079;51.824;4.682;2023-11-21T15:55:24;10.50;99.90